createdAt,value
2023-01-03T00:00:51.352Z,65.49
2023-01-03T00:03:18.296Z,65.27
2023-01-03T00:05:47.014Z,65.79
2023-01-03T00:08:15.451Z,65.75
2023-01-03T00:10:42.667Z,66.16
2023-01-03T00:13:09.514Z,65.62
2023-01-03T00:15:38.419Z,66.12
2023-01-03T00:18:05.788Z,66.20
2023-01-03T00:20:34.690Z,66.32
2023-01-03T00:23:02.275Z,66.71
2023-01-03T00:25:30.312Z,66.51
2023-01-03T00:27:57.302Z,66.11
2023-01-03T00:30:24.246Z,65.78
2023-01-03T00:32:51.080Z,65.84
2023-01-03T00:35:18.017Z,65.55
2023-01-03T00:37:44.891Z,65.52
2023-01-03T00:40:12.118Z,65.26
2023-01-03T00:42:58.896Z,64.66
2023-01-03T00:45:26.489Z,64.92
2023-01-03T00:47:54.302Z,64.43
2023-01-03T00:50:21.177Z,64.45
2023-01-03T00:52:47.994Z,64.49
2023-01-03T00:55:14.879Z,64.15
2023-01-03T00:57:41.688Z,64.79
2023-01-03T01:00:09.176Z,64.58
2023-01-03T01:02:36.163Z,64.77
2023-01-03T01:05:03.451Z,64.46
2023-01-03T01:07:30.329Z,64.37
2023-01-03T01:09:57.163Z,64.15
2023-01-03T01:12:24.031Z,64.25
2023-01-03T01:14:50.899Z,64.90
2023-01-03T01:17:22.389Z,65.36
2023-01-03T01:19:49.757Z,65.51
2023-01-03T01:22:16.568Z,65.59
2023-01-03T01:24:43.435Z,65.06
2023-01-03T01:27:10.804Z,65.37
2023-01-03T01:29:38.855Z,65.16
2023-01-03T01:32:06.307Z,65.19
2023-01-03T01:34:33.899Z,65.08
2023-01-03T01:37:00.725Z,65.91
2023-01-03T01:39:29.237Z,66.02
2023-01-03T01:42:20.751Z,65.35
2023-01-03T01:45:12.942Z,65.48
2023-01-03T01:47:59.819Z,65.78
2023-01-03T01:50:49.482Z,66.12
2023-01-03T01:53:25.426Z,66.07
2023-01-03T01:56:13.451Z,66.09
2023-01-03T01:58:45.254Z,66.45
2023-01-03T02:01:15.020Z,66.61
2023-01-03T02:03:44.969Z,67.07
2023-01-03T02:06:15.600Z,66.50
2023-01-03T02:08:42.485Z,66.87
2023-01-03T02:11:43.993Z,67.00
2023-01-03T02:14:28.707Z,67.09
2023-01-03T02:17:14.757Z,67.44
2023-01-03T02:20:14.072Z,67.30
2023-01-03T02:23:29.570Z,67.07
2023-01-03T02:26:17.876Z,67.32
2023-01-03T02:29:22.875Z,67.13
2023-01-03T02:32:33.675Z,67.36
2023-01-03T02:35:18.607Z,67.61
2023-01-03T02:38:17.556Z,67.15
2023-01-03T02:41:34.025Z,66.63
2023-01-03T02:44:42.663Z,67.13
2023-01-03T02:47:13.335Z,67.33
2023-01-03T02:49:50.160Z,67.46
2023-01-03T02:52:24.606Z,67.17
2023-01-03T02:55:08.624Z,67.36
2023-01-03T02:57:44.721Z,67.64
2023-01-03T03:00:16.745Z,67.49
2023-01-03T03:02:52.240Z,67.68
2023-01-03T03:05:25.882Z,67.63
2023-01-03T03:07:53.064Z,68.06
2023-01-03T03:10:40.488Z,68.21
2023-01-03T03:13:24.507Z,68.16
2023-01-03T03:16:12.350Z,68.09
2023-01-03T03:19:01.788Z,68.61
2023-01-03T03:21:53.125Z,68.48
2023-01-03T03:24:46.501Z,68.66
2023-01-03T03:27:36.147Z,68.30
2023-01-03T03:30:07.057Z,68.64
2023-01-03T03:32:36.456Z,68.47
2023-01-03T03:35:05.522Z,68.68
2023-01-03T03:37:35.204Z,69.29
2023-01-03T03:40:21.490Z,69.29
2023-01-03T03:43:21.565Z,69.25
2023-01-03T03:46:09.593Z,69.36
2023-01-03T03:49:27.174Z,69.49
2023-01-03T03:51:57.686Z,69.53
2023-01-03T03:54:26.367Z,69.43
2023-01-03T03:57:29.620Z,69.63
2023-01-03T04:00:05.302Z,69.95
2023-01-03T04:02:34.831Z,70.02
2023-01-03T04:05:07.866Z,69.92
2023-01-03T04:07:35.185Z,70.23
2023-01-03T04:10:02.378Z,70.13
2023-01-03T04:12:29.220Z,70.44
2023-01-03T04:14:56.061Z,70.26
2023-01-03T04:17:22.879Z,70.74
2023-01-03T04:19:49.737Z,70.47
2023-01-03T04:22:16.593Z,70.91
2023-01-03T04:24:43.467Z,70.84
2023-01-03T04:27:10.307Z,71.03
2023-01-03T04:29:39.378Z,71.09
2023-01-03T04:32:08.225Z,71.11
2023-01-03T04:34:35.206Z,70.88
2023-01-03T04:37:02.039Z,71.42
2023-01-03T04:39:28.883Z,71.25
2023-01-03T04:41:55.713Z,71.59
2023-01-03T04:44:22.542Z,71.47
2023-01-03T04:46:53.025Z,71.69
2023-01-03T04:49:20.637Z,71.30
2023-01-03T04:51:47.460Z,71.58
2023-01-03T04:54:14.273Z,71.45
2023-01-03T04:56:41.058Z,71.31
2023-01-03T04:59:08.021Z,71.25
2023-01-03T05:01:34.995Z,71.21
2023-01-03T05:04:02.596Z,71.27
2023-01-03T05:06:29.813Z,71.46
2023-01-03T05:08:56.994Z,71.10
2023-01-03T05:11:24.197Z,70.95
2023-01-03T05:13:51.010Z,71.36
2023-01-03T05:16:18.190Z,70.84
2023-01-03T05:18:45.206Z,71.10
2023-01-03T05:21:39.497Z,71.09
2023-01-03T05:24:27.446Z,70.96
2023-01-03T05:26:54.398Z,70.80
2023-01-03T05:29:22.463Z,70.75
2023-01-03T05:31:49.846Z,71.16
2023-01-03T05:34:16.819Z,71.16
2023-01-03T05:36:43.682Z,71.30
2023-01-03T05:39:10.780Z,70.88
2023-01-03T05:41:56.184Z,71.25
2023-01-03T05:44:23.302Z,71.29
2023-01-03T05:46:50.266Z,71.24
2023-01-03T05:49:17.268Z,71.02
2023-01-03T05:51:44.260Z,71.27
2023-01-03T05:54:16.059Z,71.02
2023-01-03T05:56:43.236Z,70.97
2023-01-03T05:59:10.459Z,71.47
2023-01-03T06:01:37.612Z,71.22
2023-01-03T06:04:04.823Z,71.09
2023-01-03T06:06:31.654Z,71.50
2023-01-03T06:09:00.119Z,71.48
2023-01-03T06:11:27.001Z,71.88
2023-01-03T06:13:54.226Z,72.16
2023-01-03T06:16:40.343Z,71.96
2023-01-03T06:19:08.717Z,72.53
2023-01-03T06:21:36.421Z,72.19
2023-01-03T06:24:03.852Z,72.31
2023-01-03T06:26:30.928Z,72.24
2023-01-03T06:28:57.750Z,72.65
2023-01-03T06:31:27.965Z,72.64
2023-01-03T06:33:54.892Z,72.41
2023-01-03T06:36:23.708Z,72.54
2023-01-03T06:38:50.503Z,72.91
2023-01-03T06:41:17.437Z,72.87
2023-01-03T06:43:45.441Z,72.85
2023-01-03T06:46:34.307Z,72.65
2023-01-03T06:49:20.048Z,73.20
2023-01-03T06:52:07.163Z,73.34
2023-01-03T06:54:38.851Z,73.68
2023-01-03T06:57:06.091Z,73.79
2023-01-03T06:59:33.024Z,73.81
2023-01-03T07:01:59.927Z,73.71
2023-01-03T07:04:27.234Z,74.25
2023-01-03T07:06:54.285Z,73.79
2023-01-03T07:09:21.172Z,74.01
2023-01-03T07:11:48.066Z,74.29
2023-01-03T07:14:14.954Z,74.31
2023-01-03T07:16:45.364Z,74.67
2023-01-03T07:19:16.368Z,74.71
2023-01-03T07:21:43.770Z,74.87
2023-01-03T07:24:18.489Z,75.06
2023-01-03T07:26:45.364Z,74.95
2023-01-03T07:29:12.476Z,74.94
2023-01-03T07:31:41.966Z,75.08
2023-01-03T07:34:09.577Z,74.86
2023-01-03T07:36:37.075Z,74.69
2023-01-03T07:39:04.444Z,74.75
2023-01-03T07:41:50.096Z,75.02
2023-01-03T07:44:16.890Z,74.79
2023-01-03T07:46:43.770Z,75.20
2023-01-03T07:49:12.123Z,74.97
2023-01-03T07:51:39.737Z,75.18
2023-01-03T07:54:07.563Z,75.06
2023-01-03T07:56:35.088Z,75.27
2023-01-03T07:59:02.751Z,75.18
2023-01-03T08:01:30.509Z,75.42
2023-01-03T08:03:57.761Z,74.65
2023-01-03T08:06:25.361Z,74.95
2023-01-03T08:09:28.301Z,75.11
2023-01-03T08:12:13.657Z,75.29
2023-01-03T08:14:40.621Z,75.55
2023-01-03T08:17:07.507Z,75.08
2023-01-03T08:19:37.714Z,75.19
2023-01-03T08:22:07.135Z,74.42
2023-01-03T08:24:33.975Z,75.01
2023-01-03T08:27:00.867Z,74.40
2023-01-03T08:29:27.759Z,74.67
2023-01-03T08:31:57.183Z,74.72
2023-01-03T08:34:29.693Z,74.67
2023-01-03T08:37:01.984Z,75.07
2023-01-03T08:39:36.893Z,76.01
2023-01-03T08:42:07.212Z,76.46
2023-01-03T08:44:34.449Z,76.45
2023-01-03T08:47:04.485Z,76.81
2023-01-03T08:49:32.531Z,76.76
2023-01-03T08:51:59.373Z,76.72
2023-01-03T08:54:26.231Z,76.71
2023-01-03T08:56:53.054Z,76.86
2023-01-03T08:59:19.909Z,77.13
2023-01-03T09:01:46.968Z,76.81
2023-01-03T09:04:13.948Z,76.69
2023-01-03T09:06:41.164Z,76.86
2023-01-03T09:09:09.777Z,76.79
2023-01-03T09:11:36.653Z,76.99
2023-01-03T09:14:03.448Z,77.05
2023-01-03T09:16:30.362Z,76.90
2023-01-03T09:18:57.872Z,77.21
2023-01-03T09:21:24.750Z,76.76
2023-01-03T09:23:51.708Z,76.56
2023-01-03T09:26:18.616Z,77.13
2023-01-03T09:28:45.555Z,76.79
2023-01-03T09:31:12.527Z,76.79
2023-01-03T09:33:39.380Z,76.67
2023-01-03T09:36:06.796Z,76.49
2023-01-03T09:38:33.903Z,76.23
2023-01-03T09:41:09.115Z,76.61
2023-01-03T09:43:46.036Z,75.88
2023-01-03T09:46:20.257Z,76.12
2023-01-03T09:48:49.202Z,76.21
2023-01-03T09:51:47.076Z,76.34
2023-01-03T09:54:35.750Z,76.55
2023-01-03T09:57:28.298Z,76.36
2023-01-03T10:00:13.989Z,76.35
2023-01-03T10:03:38.053Z,76.54
2023-01-03T10:06:39.698Z,76.24
2023-01-03T10:09:29.213Z,75.94
2023-01-03T10:12:28.373Z,75.33
2023-01-03T10:15:22.814Z,75.17
2023-01-03T10:18:03.276Z,74.92
2023-01-03T10:20:39.372Z,74.55
2023-01-03T10:23:09.852Z,73.58
2023-01-03T10:25:40.953Z,73.41
2023-01-03T10:28:34.954Z,73.82
2023-01-03T10:31:31.530Z,73.58
2023-01-03T10:33:58.352Z,72.51
2023-01-03T10:36:25.162Z,72.89
2023-01-03T10:39:10.761Z,72.35
2023-01-03T10:41:46.775Z,73.32
2023-01-03T10:44:33.145Z,74.48
2023-01-03T10:47:10.718Z,74.85
2023-01-03T10:49:37.560Z,73.74
2023-01-03T10:52:17.086Z,73.76
2023-01-03T10:54:43.835Z,73.48
2023-01-03T10:57:52.603Z,72.68
2023-01-03T11:00:38.102Z,73.35
2023-01-03T11:03:24.372Z,73.33
2023-01-03T11:06:00.350Z,72.44
2023-01-03T11:08:48.097Z,73.59
2023-01-03T11:11:36.223Z,73.07
2023-01-03T11:14:23.137Z,72.87
2023-01-03T11:17:01.731Z,72.00
2023-01-03T11:19:32.713Z,72.08
2023-01-03T11:22:06.182Z,70.79
2023-01-03T11:25:12.966Z,70.19
2023-01-03T11:28:00.511Z,70.73
2023-01-03T11:31:08.484Z,71.99
2023-01-03T11:33:48.689Z,71.77
2023-01-03T11:36:30.097Z,72.67
2023-01-03T11:39:22.797Z,72.95
2023-01-03T11:42:18.882Z,73.44
2023-01-03T11:45:26.524Z,73.17
2023-01-03T11:48:09.152Z,73.19
2023-01-03T11:50:58.886Z,72.79
2023-01-03T11:53:51.189Z,72.65
2023-01-03T11:56:34.561Z,72.33
2023-01-03T11:59:13.840Z,72.90
2023-01-03T12:01:58.751Z,72.49
2023-01-03T12:04:48.571Z,72.66
2023-01-03T12:10:21.180Z,72.51
2023-01-03T12:13:15.670Z,72.76
2023-01-03T12:16:13.028Z,72.89
2023-01-03T12:19:12.459Z,72.93
2023-01-03T12:21:44.731Z,72.35
2023-01-03T12:24:33.486Z,72.19
2023-01-03T12:27:21.221Z,72.22
2023-01-03T12:30:05.055Z,70.90
2023-01-03T12:32:47.694Z,71.62
2023-01-03T12:35:29.624Z,71.75
2023-01-03T12:37:58.338Z,71.50
2023-01-03T12:40:51.397Z,71.58
2023-01-03T12:43:33.873Z,71.06
2023-01-03T12:46:13.105Z,71.13
2023-01-03T12:49:02.977Z,70.65
2023-01-03T12:51:30.215Z,69.68
2023-01-03T12:53:57.743Z,69.62
2023-01-03T12:56:56.361Z,69.16
2023-01-03T12:59:54.146Z,68.07
2023-01-03T13:02:39.541Z,68.58
2023-01-03T13:05:14.882Z,67.86
2023-01-03T13:07:48.958Z,67.69
2023-01-03T13:10:20.324Z,65.83
2023-01-03T13:12:54.744Z,66.07
2023-01-03T13:15:37.148Z,66.02
2023-01-03T13:18:22.656Z,65.69
2023-01-03T13:20:51.967Z,66.75
2023-01-03T13:23:34.577Z,67.22
2023-01-03T13:26:07.121Z,67.72
2023-01-03T13:28:35.817Z,68.26
2023-01-03T13:31:14.995Z,67.22
2023-01-03T13:34:11.782Z,66.42
2023-01-03T13:37:15.133Z,66.54
2023-01-03T13:39:51.222Z,66.66
2023-01-03T13:42:26.789Z,65.61
2023-01-03T13:45:19.429Z,66.19
2023-01-03T13:47:52.158Z,66.52
2023-01-03T13:50:35.733Z,66.79
2023-01-03T13:53:10.051Z,67.01
2023-01-03T13:55:55.026Z,68.29
2023-01-03T13:58:27.872Z,68.43
2023-01-03T14:01:06.440Z,67.92
2023-01-03T14:03:44.049Z,68.10
2023-01-03T14:06:32.625Z,68.64
2023-01-03T14:09:18.100Z,68.76
2023-01-03T14:12:00.603Z,68.37
2023-01-03T14:14:31.208Z,68.29
2023-01-03T14:16:59.210Z,67.94
2023-01-03T14:19:35.882Z,68.08
2023-01-03T14:22:28.564Z,67.08
2023-01-03T14:24:58.136Z,67.10
2023-01-03T14:27:37.634Z,67.29
2023-01-03T14:30:05.566Z,67.41
2023-01-03T14:32:35.973Z,67.40
2023-01-03T14:35:04.047Z,67.59
2023-01-03T14:37:33.041Z,68.08
2023-01-03T14:40:03.925Z,68.04
2023-01-03T14:42:30.772Z,67.58
2023-01-03T14:45:01.399Z,68.22
2023-01-03T14:47:34.658Z,68.40
2023-01-03T14:50:02.289Z,68.23
2023-01-03T14:52:33.201Z,68.54
2023-01-03T14:55:18.856Z,69.11
2023-01-03T14:57:48.027Z,69.67
2023-01-03T15:00:32.901Z,69.72
2023-01-03T15:03:01.639Z,70.40
2023-01-03T15:05:39.600Z,70.34
2023-01-03T15:08:15.166Z,70.44
2023-01-03T15:10:52.221Z,70.55
2023-01-03T15:13:33.580Z,70.85
2023-01-03T15:16:04.753Z,71.05
2023-01-03T15:18:39.830Z,71.18
2023-01-03T15:21:06.868Z,71.53
2023-01-03T15:23:46.277Z,71.41
2023-01-03T15:26:42.357Z,71.45
2023-01-03T15:29:20.879Z,71.77
2023-01-03T15:31:57.455Z,71.95
2023-01-03T15:34:30.301Z,71.94
2023-01-03T15:37:15.424Z,72.43
2023-01-03T15:39:56.253Z,72.53
2023-01-03T15:42:57.986Z,72.57
2023-01-03T15:45:29.699Z,72.40
2023-01-03T15:47:59.858Z,72.33
2023-01-03T15:50:40.476Z,72.99
2023-01-03T15:53:17.174Z,72.92
2023-01-03T15:55:44.213Z,72.99
2023-01-03T15:58:11.248Z,73.17
2023-01-03T16:00:38.149Z,72.97
2023-01-03T16:03:05.166Z,73.22
2023-01-03T16:05:32.135Z,72.99
2023-01-03T16:07:58.995Z,73.28
2023-01-03T16:10:25.850Z,73.79
2023-01-03T16:12:52.678Z,73.37
2023-01-03T16:15:22.038Z,73.21
2023-01-03T16:17:50.706Z,73.37
2023-01-03T16:20:19.245Z,73.83
2023-01-03T16:23:00.420Z,73.72
2023-01-03T16:25:28.967Z,73.89
2023-01-03T16:27:56.008Z,74.03
2023-01-03T16:30:24.264Z,74.34
2023-01-03T16:32:51.765Z,74.60
2023-01-03T16:35:20.520Z,74.46
2023-01-03T16:37:47.407Z,74.66
2023-01-03T16:40:21.588Z,74.83
2023-01-03T16:42:48.702Z,74.72
2023-01-03T16:45:16.993Z,74.81
2023-01-03T16:47:44.349Z,75.33
2023-01-03T16:50:18.738Z,74.98
2023-01-03T16:52:52.363Z,74.92
2023-01-03T16:55:32.825Z,75.08
2023-01-03T16:58:00.352Z,75.23
2023-01-03T17:00:34.408Z,75.47
2023-01-03T17:03:01.809Z,75.51
2023-01-03T17:05:35.593Z,75.25
2023-01-03T17:08:23.970Z,75.41
2023-01-03T17:10:56.658Z,75.32
2023-01-03T17:13:27.171Z,75.32
2023-01-03T17:15:55.409Z,75.37
2023-01-03T17:18:31.535Z,75.85
2023-01-03T17:21:02.209Z,75.62
2023-01-03T17:23:32.674Z,75.99
2023-01-03T17:25:59.700Z,75.98
2023-01-03T17:28:26.640Z,76.01
2023-01-03T17:30:56.599Z,75.83
2023-01-03T17:33:30.247Z,75.55
2023-01-03T17:36:00.815Z,75.69
2023-01-03T17:38:29.576Z,75.58
2023-01-03T17:40:57.230Z,75.94
2023-01-03T17:43:25.418Z,75.82
2023-01-03T17:46:20.631Z,75.96
2023-01-03T17:49:07.969Z,75.85
2023-01-03T17:51:34.883Z,75.63
2023-01-03T17:54:01.862Z,75.94
2023-01-03T17:56:30.064Z,75.90
2023-01-03T17:58:57.238Z,76.08
2023-01-03T18:01:24.466Z,76.07
2023-01-03T18:03:51.479Z,76.27
2023-01-03T18:06:22.498Z,76.94
2023-01-03T18:08:50.650Z,76.83
2023-01-03T18:11:21.163Z,76.88
2023-01-03T18:13:49.459Z,77.09
2023-01-03T18:16:20.776Z,76.43
2023-01-03T18:18:50.222Z,77.05
2023-01-03T18:21:23.975Z,77.19
2023-01-03T18:24:04.521Z,76.85
2023-01-03T18:26:39.558Z,76.17
2023-01-03T18:29:07.984Z,76.39
2023-01-03T18:31:36.011Z,76.25
2023-01-03T18:34:04.451Z,76.42
2023-01-03T18:36:44.965Z,76.68
2023-01-03T18:39:21.962Z,77.11
2023-01-03T18:41:49.325Z,77.17
2023-01-03T18:44:23.219Z,77.62
2023-01-03T18:46:52.855Z,77.29
2023-01-03T18:49:20.147Z,77.36
2023-01-03T18:51:50.332Z,77.41
2023-01-03T18:54:19.648Z,77.28
2023-01-03T18:56:46.856Z,77.26
2023-01-03T18:59:25.064Z,76.85
2023-01-03T19:01:52.556Z,76.82
2023-01-03T19:04:20.098Z,77.03
2023-01-03T19:06:50.587Z,77.29
2023-01-03T19:09:23.070Z,77.35
2023-01-03T19:11:50.696Z,77.47
2023-01-03T19:14:17.784Z,77.82
2023-01-03T19:16:44.713Z,78.29
2023-01-03T19:19:11.600Z,78.02
2023-01-03T19:21:42.221Z,77.63
2023-01-03T19:24:39.699Z,77.15
2023-01-03T19:27:21.001Z,76.84
2023-01-03T19:29:49.254Z,76.85
2023-01-03T19:32:27.516Z,77.00
2023-01-03T19:34:54.891Z,77.21
2023-01-03T19:37:22.405Z,76.96
2023-01-03T19:39:49.537Z,77.01
2023-01-03T19:42:38.312Z,76.62
2023-01-03T19:45:36.535Z,76.76
2023-01-03T19:48:26.336Z,76.48
2023-01-03T19:50:53.342Z,76.55
2023-01-03T19:53:20.188Z,76.76
2023-01-03T19:55:49.094Z,76.97
2023-01-03T19:58:40.672Z,77.91
2023-01-03T20:01:13.793Z,77.99
2023-01-03T20:03:42.776Z,77.69
2023-01-03T20:06:15.868Z,77.56
2023-01-03T20:08:43.013Z,77.38
2023-01-03T20:11:22.075Z,77.28
2023-01-03T20:13:49.452Z,76.85
2023-01-03T20:16:17.812Z,76.98
2023-01-03T20:18:44.776Z,76.59
2023-01-03T20:21:22.864Z,76.73
2023-01-03T20:23:55.729Z,76.61
2023-01-03T20:26:26.659Z,76.58
2023-01-03T20:28:55.602Z,76.16
2023-01-03T20:31:23.237Z,76.44
2023-01-03T20:33:50.300Z,76.54
2023-01-03T20:36:23.552Z,76.58
2023-01-03T20:38:54.354Z,76.49
2023-01-03T20:41:21.942Z,76.20
2023-01-03T20:43:50.225Z,76.27
2023-01-03T20:46:21.407Z,76.45
2023-01-03T20:48:56.617Z,76.47
2023-01-03T20:51:24.532Z,76.52
2023-01-03T20:53:54.764Z,76.58
2023-01-03T20:56:23.414Z,76.48
2023-01-03T20:58:50.449Z,77.02
2023-01-03T21:01:17.437Z,77.28
2023-01-03T21:03:44.473Z,76.72
2023-01-03T21:06:30.074Z,76.71
2023-01-03T21:08:57.867Z,76.57
2023-01-03T21:11:33.750Z,76.42
2023-01-03T21:14:01.462Z,76.43
2023-01-03T21:16:36.707Z,76.61
2023-01-03T21:19:24.318Z,76.15
2023-01-03T21:21:53.983Z,76.51
2023-01-03T21:24:23.949Z,75.67
2023-01-03T21:26:51.525Z,76.01
2023-01-03T21:29:18.392Z,76.18
2023-01-03T21:31:45.344Z,76.36
2023-01-03T21:34:21.759Z,76.66
2023-01-03T21:36:48.787Z,76.81
2023-01-03T21:39:15.723Z,77.12
2023-01-03T21:42:01.783Z,77.49
2023-01-03T21:44:28.671Z,77.18
2023-01-03T21:46:55.845Z,76.49
2023-01-03T21:49:23.734Z,76.25
2023-01-03T21:51:51.136Z,76.19
2023-01-03T21:54:19.020Z,75.68
2023-01-03T21:56:46.710Z,75.99
2023-01-03T21:59:16.825Z,76.34
2023-01-03T22:02:06.338Z,76.22
2023-01-03T22:04:34.113Z,76.45
2023-01-03T22:07:01.751Z,76.75
2023-01-03T22:09:48.647Z,77.01
2023-01-03T22:12:16.575Z,77.23
2023-01-03T22:14:46.664Z,76.50
2023-01-03T22:17:13.962Z,76.72
2023-01-03T22:19:40.842Z,77.12
2023-01-03T22:22:07.837Z,76.59
2023-01-03T22:24:34.655Z,76.68
2023-01-03T22:27:01.479Z,75.90
2023-01-03T22:29:28.271Z,76.58
2023-01-03T22:31:55.199Z,77.08
2023-01-03T22:34:22.086Z,77.24
2023-01-03T22:36:48.922Z,77.57
2023-01-03T22:39:15.797Z,77.90
2023-01-03T22:41:42.650Z,77.70
2023-01-03T22:44:10.663Z,77.37
2023-01-03T22:46:37.527Z,77.64
2023-01-03T22:49:04.361Z,77.44
2023-01-03T22:51:31.176Z,77.68
2023-01-03T22:53:58.498Z,77.43
2023-01-03T22:56:25.373Z,77.46
2023-01-03T22:58:52.208Z,76.44
2023-01-03T23:01:28.027Z,76.62
2023-01-03T23:04:00.011Z,77.03
2023-01-03T23:06:29.263Z,77.02
2023-01-03T23:08:57.253Z,77.61
2023-01-03T23:11:45.509Z,77.69
2023-01-03T23:14:21.187Z,77.27
2023-01-03T23:16:51.047Z,77.07
2023-01-03T23:19:21.344Z,76.96
2023-01-03T23:21:48.247Z,76.74
2023-01-03T23:24:23.007Z,76.86
2023-01-03T23:26:51.134Z,77.19
2023-01-03T23:29:18.597Z,77.97
2023-01-03T23:31:45.752Z,78.15
2023-01-03T23:34:12.694Z,78.16
2023-01-03T23:36:42.996Z,78.43
2023-01-03T23:39:18.309Z,78.47
2023-01-03T23:41:46.011Z,78.46
2023-01-03T23:44:13.063Z,78.31
2023-01-03T23:46:40.005Z,78.34
2023-01-03T23:49:06.880Z,78.12
2023-01-03T23:51:33.754Z,77.74
2023-01-03T23:54:00.619Z,77.42
2023-01-03T23:56:27.451Z,77.48
2023-01-03T23:58:54.288Z,77.60
